sensor_id;sensor_type;location;lat;lon;timestamp;P1;durP1;ratioP1;P2;durP2;ratioP2
33644;SDS011;19986;48.190;16.366;2022-11-20T05:05:45;69.57;;;63.63;;
33644;SDS011;19986;48.190;16.366;2022-11-20T05:08:11;66.47;;;60.88;;
33644;SDS011;19986;48.190;16.366;2022-11-20T05:10:37;65.80;;;60.28;;
33644;SDS011;19986;48.190;16.366;2022-11-20T05:13:03;69.55;;;63.65;;
33644;SDS011;19986;48.190;16.366;2022-11-20T05:15:29;67.45;;;61.85;;
33644;SDS011;19986;48.190;16.366;2022-11-20T05:17:55;66.55;;;61.05;;
33644;SDS011;19986;48.190;16.366;2022-11-20T05:20:20;69.03;;;62.80;;
33644;SDS011;19986;48.190;16.366;2022-11-20T05:22:46;66.72;;;61.00;;
33644;SDS011;19986;48.190;16.366;2022-11-20T05:25:12;68.43;;;62.85;;
33644;SDS011;19986;48.190;16.366;2022-11-20T05:27:38;71.68;;;65.68;;
33644;SDS011;19986;48.190;16.366;2022-11-20T05:30:04;68.63;;;62.97;;
33644;SDS011;19986;48.190;16.366;2022-11-20T05:32:30;65.93;;;60.35;;
33644;SDS011;19986;48.190;16.366;2022-11-20T05:34:56;65.38;;;60.03;;
33644;SDS011;19986;48.190;16.366;2022-11-20T05:37:22;66.78;;;61.20;;
33644;SDS011;19986;48.190;16.366;2022-11-20T05:39:48;68.22;;;62.65;;
33644;SDS011;19986;48.190;16.366;2022-11-20T05:42:13;67.60;;;62.08;;
33644;SDS011;19986;48.190;16.366;2022-11-20T05:45:02;67.22;;;61.38;;
33644;SDS011;19986;48.190;16.366;2022-11-20T05:47:31;68.00;;;62.20;;
33644;SDS011;19986;48.190;16.366;2022-11-20T05:49:58;66.30;;;60.88;;
33644;SDS011;19986;48.190;16.366;2022-11-20T05:52:24;64.05;;;58.42;;
33644;SDS011;19986;48.190;16.366;2022-11-20T05:54:50;65.07;;;59.65;;
33644;SDS011;19986;48.190;16.366;2022-11-20T05:57:16;67.10;;;61.60;;
33644;SDS011;19986;48.190;16.366;2022-11-20T05:59:42;63.25;;;58.15;;
33644;SDS011;19986;48.190;16.366;2022-11-20T06:02:08;66.07;;;60.55;;
33644;SDS011;19986;48.190;16.366;2022-11-20T06:04:34;67.32;;;61.90;;
33644;SDS011;19986;48.190;16.366;2022-11-20T06:06:59;64.47;;;59.17;;
33644;SDS011;19986;48.190;16.366;2022-11-20T06:09:25;67.57;;;62.08;;
33644;SDS011;19986;48.190;16.366;2022-11-20T06:11:52;68.07;;;62.65;;
33644;SDS011;19986;48.190;16.366;2022-11-20T06:14:18;64.88;;;59.60;;
33644;SDS011;19986;48.190;16.366;2022-11-20T06:16:43;66.30;;;60.88;;
33644;SDS011;19986;48.190;16.366;2022-11-20T06:19:10;66.15;;;60.55;;
33644;SDS011;19986;48.190;16.366;2022-11-20T06:21:37;67.53;;;62.08;;
33644;SDS011;19986;48.190;16.366;2022-11-20T06:24:02;65.50;;;60.05;;
33644;SDS011;19986;48.190;16.366;2022-11-20T06:26:29;69.85;;;64.20;;
33644;SDS011;19986;48.190;16.366;2022-11-20T06:28:56;67.72;;;61.97;;
33644;SDS011;19986;48.190;16.366;2022-11-20T06:31:23;67.80;;;62.20;;
33644;SDS011;19986;48.190;16.366;2022-11-20T06:33:50;66.18;;;60.85;;
33644;SDS011;19986;48.190;16.366;2022-11-20T06:36:17;65.45;;;59.97;;
33644;SDS011;19986;48.190;16.366;2022-11-20T06:38:45;70.60;;;64.60;;
33644;SDS011;19986;48.190;16.366;2022-11-20T06:41:12;66.70;;;61.08;;
33644;SDS011;19986;48.190;16.366;2022-11-20T06:43:40;69.45;;;63.47;;
33644;SDS011;19986;48.190;16.366;2022-11-20T06:46:06;69.75;;;63.90;;
33644;SDS011;19986;48.190;16.366;2022-11-20T06:48:32;69.88;;;64.00;;
33644;SDS011;19986;48.190;16.366;2022-11-20T06:50:59;69.18;;;63.42;;
33644;SDS011;19986;48.190;16.366;2022-11-20T06:53:24;68.55;;;62.83;;
33644;SDS011;19986;48.190;16.366;2022-11-20T06:55:51;66.82;;;61.03;;
33644;SDS011;19986;48.190;16.366;2022-11-20T06:58:17;71.57;;;65.78;;
33644;SDS011;19986;48.190;16.366;2022-11-20T07:00:43;68.45;;;62.75;;
33644;SDS011;19986;48.190;16.366;2022-11-20T07:03:10;65.18;;;59.45;;
33644;SDS011;19986;48.190;16.366;2022-11-20T07:05:36;67.50;;;61.70;;
33644;SDS011;19986;48.190;16.366;2022-11-20T07:08:03;70.13;;;64.28;;
33644;SDS011;19986;48.190;16.366;2022-11-20T07:10:29;68.93;;;62.88;;
33644;SDS011;19986;48.190;16.366;2022-11-20T07:12:55;69.40;;;63.70;;
33644;SDS011;19986;48.190;16.366;2022-11-20T07:15:22;71.25;;;65.40;;
33644;SDS011;19986;48.190;16.366;2022-11-20T07:17:50;69.22;;;63.38;;
33644;SDS011;19986;48.190;16.366;2022-11-20T07:20:16;68.10;;;62.30;;
33644;SDS011;19986;48.190;16.366;2022-11-20T07:22:42;69.35;;;63.47;;
33644;SDS011;19986;48.190;16.366;2022-11-20T07:25:08;71.03;;;65.05;;
33644;SDS011;19986;48.190;16.366;2022-11-20T07:27:35;66.53;;;60.83;;
33644;SDS011;19986;48.190;16.366;2022-11-20T07:30:01;69.38;;;63.45;;
33644;SDS011;19986;48.190;16.366;2022-11-20T07:32:28;66.82;;;61.08;;
33644;SDS011;19986;48.190;16.366;2022-11-20T07:34:54;69.65;;;63.67;;
33644;SDS011;19986;48.190;16.366;2022-11-20T07:37:20;69.43;;;63.55;;
33644;SDS011;19986;48.190;16.366;2022-11-20T07:39:46;70.13;;;64.53;;
33644;SDS011;19986;48.190;16.366;2022-11-20T07:42:12;71.10;;;65.13;;
33644;SDS011;19986;48.190;16.366;2022-11-20T07:44:38;71.53;;;65.15;;
33644;SDS011;19986;48.190;16.366;2022-11-20T07:47:03;71.43;;;65.35;;
33644;SDS011;19986;48.190;16.366;2022-11-20T07:49:29;71.43;;;65.47;;
33644;SDS011;19986;48.190;16.366;2022-11-20T07:51:55;71.75;;;65.60;;
33644;SDS011;19986;48.190;16.366;2022-11-20T07:54:21;70.53;;;64.22;;
33644;SDS011;19986;48.190;16.366;2022-11-20T07:56:48;71.47;;;65.25;;
33644;SDS011;19986;48.190;16.366;2022-11-20T07:59:14;69.38;;;63.38;;
33644;SDS011;19986;48.190;16.366;2022-11-20T08:01:41;70.78;;;64.80;;
33644;SDS011;19986;48.190;16.366;2022-11-20T08:04:08;71.40;;;65.38;;
33644;SDS011;19986;48.190;16.366;2022-11-20T08:06:34;69.88;;;63.78;;
33644;SDS011;19986;48.190;16.366;2022-11-20T08:09:01;72.22;;;66.03;;
33644;SDS011;19986;48.190;16.366;2022-11-20T08:11:27;69.75;;;63.75;;
33644;SDS011;19986;48.190;16.366;2022-11-20T08:14:11;68.60;;;62.75;;
33644;SDS011;19986;48.190;16.366;2022-11-20T08:16:37;73.30;;;67.10;;
33644;SDS011;19986;48.190;16.366;2022-11-20T08:19:03;73.18;;;67.03;;
33644;SDS011;19986;48.190;16.366;2022-11-20T08:21:32;72.88;;;66.63;;
33644;SDS011;19986;48.190;16.366;2022-11-20T08:23:59;69.28;;;63.20;;
33644;SDS011;19986;48.190;16.366;2022-11-20T08:26:25;70.80;;;64.65;;
33644;SDS011;19986;48.190;16.366;2022-11-20T08:28:55;72.18;;;65.88;;
33644;SDS011;19986;48.190;16.366;2022-11-20T08:31:22;72.20;;;66.20;;
33644;SDS011;19986;48.190;16.366;2022-11-20T08:33:50;69.60;;;63.65;;
33644;SDS011;19986;48.190;16.366;2022-11-20T08:36:16;69.05;;;62.92;;
33644;SDS011;19986;48.190;16.366;2022-11-20T08:38:46;72.20;;;65.95;;
33644;SDS011;19986;48.190;16.366;2022-11-20T08:41:13;72.10;;;65.78;;
33644;SDS011;19986;48.190;16.366;2022-11-20T08:43:56;70.53;;;64.40;;
33644;SDS011;19986;48.190;16.366;2022-11-20T08:46:24;70.18;;;63.97;;
33644;SDS011;19986;48.190;16.366;2022-11-20T08:48:51;66.53;;;60.88;;
33644;SDS011;19986;48.190;16.366;2022-11-20T08:51:18;71.85;;;65.82;;
33644;SDS011;19986;48.190;16.366;2022-11-20T08:53:45;70.97;;;64.82;;
33644;SDS011;19986;48.190;16.366;2022-11-20T08:56:13;73.60;;;67.18;;
33644;SDS011;19986;48.190;16.366;2022-11-20T08:58:39;71.10;;;64.95;;
33644;SDS011;19986;48.190;16.366;2022-11-20T09:01:06;69.50;;;63.40;;
33644;SDS011;19986;48.190;16.366;2022-11-20T09:03:32;70.95;;;64.85;;
33644;SDS011;19986;48.190;16.366;2022-11-20T09:05:58;71.28;;;65.18;;
33644;SDS011;19986;48.190;16.366;2022-11-20T09:08:25;68.50;;;62.55;;
33644;SDS011;19986;48.190;16.366;2022-11-20T09:10:52;69.18;;;63.00;;
33644;SDS011;19986;48.190;16.366;2022-11-20T09:13:19;70.63;;;64.45;;
33644;SDS011;19986;48.190;16.366;2022-11-20T09:15:46;72.40;;;66.15;;
33644;SDS011;19986;48.190;16.366;2022-11-20T09:18:12;72.72;;;66.47;;
33644;SDS011;19986;48.190;16.366;2022-11-20T09:20:38;71.55;;;65.15;;
33644;SDS011;19986;48.190;16.366;2022-11-20T09:23:04;71.75;;;65.45;;
33644;SDS011;19986;48.190;16.366;2022-11-20T09:25:30;72.45;;;65.88;;
33644;SDS011;19986;48.190;16.366;2022-11-20T09:28:03;72.70;;;66.25;;
33644;SDS011;19986;48.190;16.366;2022-11-20T09:30:29;71.82;;;65.55;;
33644;SDS011;19986;48.190;16.366;2022-11-20T09:32:56;73.85;;;67.38;;
33644;SDS011;19986;48.190;16.366;2022-11-20T09:35:22;72.20;;;65.88;;
33644;SDS011;19986;48.190;16.366;2022-11-20T09:37:48;73.88;;;67.50;;
33644;SDS011;19986;48.190;16.366;2022-11-20T09:40:19;70.40;;;63.95;;
33644;SDS011;19986;48.190;16.366;2022-11-20T09:54:22;75.00;;;67.90;;
33644;SDS011;19986;48.190;16.366;2022-11-20T09:57:03;74.13;;;67.57;;
33644;SDS011;19986;48.190;16.366;2022-11-20T09:59:36;70.90;;;64.50;;
33644;SDS011;19986;48.190;16.366;2022-11-20T10:04:49;73.88;;;67.22;;
33644;SDS011;19986;48.190;16.366;2022-11-20T10:07:36;78.32;;;71.28;;
33644;SDS011;19986;48.190;16.366;2022-11-20T10:10:03;75.53;;;68.68;;
33644;SDS011;19986;48.190;16.366;2022-11-20T10:12:33;76.28;;;69.57;;
33644;SDS011;19986;48.190;16.366;2022-11-20T10:15:10;74.50;;;68.20;;
33644;SDS011;19986;48.190;16.366;2022-11-20T10:20:53;69.93;;;63.97;;
33644;SDS011;19986;48.190;16.366;2022-11-20T10:26:37;71.10;;;64.70;;
33644;SDS011;19986;48.190;16.366;2022-11-20T10:31:39;76.82;;;70.13;;
33644;SDS011;19986;48.190;16.366;2022-11-20T10:36:52;72.88;;;66.10;;
33644;SDS011;19986;48.190;16.366;2022-11-20T10:39:24;73.50;;;67.00;;
33644;SDS011;19986;48.190;16.366;2022-11-20T10:41:59;71.43;;;64.68;;
33644;SDS011;19986;48.190;16.366;2022-11-20T10:44:26;76.00;;;69.10;;
33644;SDS011;19986;48.190;16.366;2022-11-20T10:47:15;71.07;;;64.75;;
33644;SDS011;19986;48.190;16.366;2022-11-20T10:49:46;71.32;;;64.75;;
33644;SDS011;19986;48.190;16.366;2022-11-20T10:52:25;70.47;;;64.10;;
33644;SDS011;19986;48.190;16.366;2022-11-20T10:58:13;71.90;;;65.80;;
33644;SDS011;19986;48.190;16.366;2022-11-20T11:00:46;69.78;;;63.55;;
33644;SDS011;19986;48.190;16.366;2022-11-20T11:03:26;71.07;;;64.88;;
33644;SDS011;19986;48.190;16.366;2022-11-20T11:06:06;69.47;;;63.13;;
33644;SDS011;19986;48.190;16.366;2022-11-20T11:08:39;71.53;;;65.05;;
33644;SDS011;19986;48.190;16.366;2022-11-20T11:11:22;72.57;;;66.22;;
33644;SDS011;19986;48.190;16.366;2022-11-20T11:13:50;72.25;;;65.95;;
33644;SDS011;19986;48.190;16.366;2022-11-20T11:16:23;72.82;;;66.32;;
33644;SDS011;19986;48.190;16.366;2022-11-20T11:18:51;67.65;;;61.85;;
33644;SDS011;19986;48.190;16.366;2022-11-20T11:21:28;71.75;;;65.25;;
33644;SDS011;19986;48.190;16.366;2022-11-20T11:23:58;75.25;;;68.28;;
33644;SDS011;19986;48.190;16.366;2022-11-20T11:26:25;72.18;;;65.95;;
33644;SDS011;19986;48.190;16.366;2022-11-20T11:29:02;73.15;;;66.72;;
33644;SDS011;19986;48.190;16.366;2022-11-20T11:31:33;71.50;;;65.13;;
33644;SDS011;19986;48.190;16.366;2022-11-20T11:34:06;72.70;;;66.18;;
33644;SDS011;19986;48.190;16.366;2022-11-20T11:36:36;70.18;;;64.05;;
33644;SDS011;19986;48.190;16.366;2022-11-20T11:39:03;70.55;;;64.03;;
33644;SDS011;19986;48.190;16.366;2022-11-20T11:41:32;73.50;;;67.00;;
33644;SDS011;19986;48.190;16.366;2022-11-20T11:44:24;69.22;;;62.95;;
33644;SDS011;19986;48.190;16.366;2022-11-20T11:47:20;70.55;;;64.47;;
33644;SDS011;19986;48.190;16.366;2022-11-20T11:55:33;70.78;;;64.50;;
33644;SDS011;19986;48.190;16.366;2022-11-20T12:00:45;72.00;;;65.88;;
33644;SDS011;19986;48.190;16.366;2022-11-20T12:03:41;69.35;;;63.30;;
33644;SDS011;19986;48.190;16.366;2022-11-20T12:06:13;72.72;;;65.95;;
33644;SDS011;19986;48.190;16.366;2022-11-20T12:11:43;70.35;;;64.03;;
33644;SDS011;19986;48.190;16.366;2022-11-20T12:14:24;69.43;;;63.00;;
33644;SDS011;19986;48.190;16.366;2022-11-20T12:16:57;70.88;;;64.63;;
33644;SDS011;19986;48.190;16.366;2022-11-20T12:19:23;71.30;;;64.72;;
33644;SDS011;19986;48.190;16.366;2022-11-20T12:22:01;72.88;;;66.05;;
33644;SDS011;19986;48.190;16.366;2022-11-20T12:24:39;70.72;;;64.20;;
33644;SDS011;19986;48.190;16.366;2022-11-20T12:43:34;70.22;;;64.03;;
33644;SDS011;19986;48.190;16.366;2022-11-20T12:46:44;72.82;;;66.40;;
33644;SDS011;19986;48.190;16.366;2022-11-20T13:05:16;71.65;;;65.55;;
33644;SDS011;19986;48.190;16.366;2022-11-20T13:07:53;71.97;;;65.78;;
33644;SDS011;19986;48.190;16.366;2022-11-20T13:10:28;68.15;;;62.17;;
33644;SDS011;19986;48.190;16.366;2022-11-20T13:13:10;67.30;;;61.40;;
33644;SDS011;19986;48.190;16.366;2022-11-20T13:15:55;71.35;;;64.70;;
33644;SDS011;19986;48.190;16.366;2022-11-20T13:18:38;67.28;;;60.65;;
33644;SDS011;19986;48.190;16.366;2022-11-20T13:21:14;69.25;;;63.22;;
33644;SDS011;19986;48.190;16.366;2022-11-20T13:23:40;73.65;;;67.35;;
33644;SDS011;19986;48.190;16.366;2022-11-20T13:26:15;69.30;;;63.28;;
33644;SDS011;19986;48.190;16.366;2022-11-20T13:28:45;68.38;;;62.28;;
33644;SDS011;19986;48.190;16.366;2022-11-20T13:31:24;68.38;;;62.45;;
33644;SDS011;19986;48.190;16.366;2022-11-20T13:33:57;70.65;;;64.63;;
33644;SDS011;19986;48.190;16.366;2022-11-20T13:36:26;68.65;;;62.95;;
33644;SDS011;19986;48.190;16.366;2022-11-20T13:38:55;69.78;;;63.63;;
33644;SDS011;19986;48.190;16.366;2022-11-20T13:46:45;70.07;;;63.92;;
33644;SDS011;19986;48.190;16.366;2022-11-20T13:49:26;70.97;;;64.88;;
33644;SDS011;19986;48.190;16.366;2022-11-20T14:00:18;71.13;;;64.53;;
33644;SDS011;19986;48.190;16.366;2022-11-20T14:02:53;69.47;;;63.40;;
33644;SDS011;19986;48.190;16.366;2022-11-20T14:05:57;70.50;;;63.92;;
33644;SDS011;19986;48.190;16.366;2022-11-20T14:08:38;69.30;;;63.08;;
33644;SDS011;19986;48.190;16.366;2022-11-20T14:11:17;70.72;;;64.25;;
33644;SDS011;19986;48.190;16.366;2022-11-20T14:17:38;71.25;;;64.85;;
33644;SDS011;19986;48.190;16.366;2022-11-20T14:19:48;72.90;;;66.40;;
33644;SDS011;19986;48.190;16.366;2022-11-20T14:22:18;74.97;;;67.13;;
33644;SDS011;19986;48.190;16.366;2022-11-20T14:24:46;70.30;;;64.15;;
33644;SDS011;19986;48.190;16.366;2022-11-20T14:27:14;72.88;;;65.97;;
33644;SDS011;19986;48.190;16.366;2022-11-20T14:29:47;70.57;;;64.25;;
33644;SDS011;19986;48.190;16.366;2022-11-20T14:32:17;73.00;;;66.75;;
33644;SDS011;19986;48.190;16.366;2022-11-20T14:34:46;71.60;;;65.10;;
33644;SDS011;19986;48.190;16.366;2022-11-20T14:37:18;72.70;;;65.95;;
33644;SDS011;19986;48.190;16.366;2022-11-20T14:39:49;72.20;;;65.75;;
33644;SDS011;19986;48.190;16.366;2022-11-20T14:42:18;69.28;;;63.30;;
33644;SDS011;19986;48.190;16.366;2022-11-20T14:44:50;71.53;;;65.32;;
33644;SDS011;19986;48.190;16.366;2022-11-20T14:47:26;71.18;;;64.63;;
33644;SDS011;19986;48.190;16.366;2022-11-20T14:49:55;74.72;;;67.68;;
33644;SDS011;19986;48.190;16.366;2022-11-20T14:52:25;72.30;;;65.60;;
33644;SDS011;19986;48.190;16.366;2022-11-20T14:54:53;70.13;;;63.67;;
33644;SDS011;19986;48.190;16.366;2022-11-20T14:57:22;73.07;;;66.80;;
33644;SDS011;19986;48.190;16.366;2022-11-20T14:59:50;70.85;;;64.65;;
33644;SDS011;19986;48.190;16.366;2022-11-20T15:02:31;72.97;;;66.78;;
33644;SDS011;19986;48.190;16.366;2022-11-20T15:04:58;70.30;;;63.58;;
33644;SDS011;19986;48.190;16.366;2022-11-20T15:07:30;70.95;;;64.88;;
33644;SDS011;19986;48.190;16.366;2022-11-20T15:10:03;70.65;;;64.47;;
33644;SDS011;19986;48.190;16.366;2022-11-20T15:12:36;69.50;;;63.22;;
33644;SDS011;19986;48.190;16.366;2022-11-20T15:18:19;74.28;;;67.47;;
33644;SDS011;19986;48.190;16.366;2022-11-20T15:20:49;68.75;;;62.60;;
33644;SDS011;19986;48.190;16.366;2022-11-20T15:23:18;70.28;;;63.88;;
33644;SDS011;19986;48.190;16.366;2022-11-20T15:25:45;70.70;;;64.40;;
33644;SDS011;19986;48.190;16.366;2022-11-20T15:28:17;73.00;;;66.28;;
33644;SDS011;19986;48.190;16.366;2022-11-20T15:30:57;74.10;;;67.53;;
33644;SDS011;19986;48.190;16.366;2022-11-20T15:33:23;70.07;;;63.45;;
33644;SDS011;19986;48.190;16.366;2022-11-20T15:35:50;70.32;;;63.90;;
33644;SDS011;19986;48.190;16.366;2022-11-20T15:38:18;74.68;;;67.80;;
33644;SDS011;19986;48.190;16.366;2022-11-20T15:40:44;76.75;;;69.15;;
33644;SDS011;19986;48.190;16.366;2022-11-20T15:43:12;72.45;;;65.80;;
33644;SDS011;19986;48.190;16.366;2022-11-20T15:45:42;73.35;;;66.20;;
33644;SDS011;19986;48.190;16.366;2022-11-20T15:48:16;77.25;;;69.97;;
33644;SDS011;19986;48.190;16.366;2022-11-20T15:50:50;73.85;;;67.00;;
33644;SDS011;19986;48.190;16.366;2022-11-20T15:53:26;70.93;;;64.28;;
33644;SDS011;19986;48.190;16.366;2022-11-20T15:55:54;73.22;;;66.25;;
33644;SDS011;19986;48.190;16.366;2022-11-20T15:58:20;73.07;;;66.00;;
33644;SDS011;19986;48.190;16.366;2022-11-20T16:00:48;73.00;;;66.32;;
33644;SDS011;19986;48.190;16.366;2022-11-20T16:03:16;73.75;;;67.05;;
33644;SDS011;19986;48.190;16.366;2022-11-20T16:05:43;73.60;;;66.78;;
33644;SDS011;19986;48.190;16.366;2022-11-20T16:08:11;72.28;;;65.57;;
33644;SDS011;19986;48.190;16.366;2022-11-20T16:10:38;74.93;;;68.00;;
33644;SDS011;19986;48.190;16.366;2022-11-20T16:13:08;71.20;;;64.40;;
33644;SDS011;19986;48.190;16.366;2022-11-20T16:15:57;74.50;;;67.78;;
33644;SDS011;19986;48.190;16.366;2022-11-20T16:18:26;74.25;;;67.35;;
33644;SDS011;19986;48.190;16.366;2022-11-20T16:20:52;73.43;;;66.72;;
33644;SDS011;19986;48.190;16.366;2022-11-20T16:23:21;72.25;;;65.43;;
33644;SDS011;19986;48.190;16.366;2022-11-20T16:25:50;73.07;;;66.38;;
33644;SDS011;19986;48.190;16.366;2022-11-20T16:28:17;77.13;;;70.20;;
33644;SDS011;19986;48.190;16.366;2022-11-20T16:30:44;71.05;;;64.47;;
33644;SDS011;19986;48.190;16.366;2022-11-20T16:33:14;71.60;;;64.60;;
33644;SDS011;19986;48.190;16.366;2022-11-20T16:35:43;72.95;;;66.15;;
33644;SDS011;19986;48.190;16.366;2022-11-20T16:38:10;74.50;;;67.70;;
33644;SDS011;19986;48.190;16.366;2022-11-20T16:40:53;73.55;;;66.80;;
33644;SDS011;19986;48.190;16.366;2022-11-20T16:43:27;74.90;;;68.20;;
33644;SDS011;19986;48.190;16.366;2022-11-20T16:45:56;74.60;;;67.78;;
33644;SDS011;19986;48.190;16.366;2022-11-20T16:48:22;72.32;;;65.75;;
33644;SDS011;19986;48.190;16.366;2022-11-20T16:50:51;78.85;;;71.85;;
33644;SDS011;19986;48.190;16.366;2022-11-20T16:53:19;76.75;;;70.03;;
33644;SDS011;19986;48.190;16.366;2022-11-20T16:55:48;73.20;;;66.40;;
33644;SDS011;19986;48.190;16.366;2022-11-20T16:58:14;77.18;;;69.78;;
33644;SDS011;19986;48.190;16.366;2022-11-20T17:00:41;77.82;;;70.88;;
33644;SDS011;19986;48.190;16.366;2022-11-20T17:03:08;71.25;;;64.43;;
33644;SDS011;19986;48.190;16.366;2022-11-20T17:05:35;77.15;;;69.50;;
33644;SDS011;19986;48.190;16.366;2022-11-20T17:08:03;73.60;;;67.03;;
33644;SDS011;19986;48.190;16.366;2022-11-20T17:10:32;74.93;;;68.10;;
33644;SDS011;19986;48.190;16.366;2022-11-20T17:12:59;75.65;;;68.18;;
33644;SDS011;19986;48.190;16.366;2022-11-20T17:15:42;74.88;;;67.95;;
33644;SDS011;19986;48.190;16.366;2022-11-20T17:18:10;76.40;;;69.15;;
33644;SDS011;19986;48.190;16.366;2022-11-20T17:20:39;76.43;;;69.05;;
33644;SDS011;19986;48.190;16.366;2022-11-20T17:23:08;75.95;;;68.65;;
33644;SDS011;19986;48.190;16.366;2022-11-20T17:25:35;79.57;;;72.18;;
33644;SDS011;19986;48.190;16.366;2022-11-20T17:28:01;81.13;;;72.53;;
33644;SDS011;19986;48.190;16.366;2022-11-20T17:30:28;79.72;;;72.03;;
33644;SDS011;19986;48.190;16.366;2022-11-20T17:32:55;87.85;;;78.57;;
33644;SDS011;19986;48.190;16.366;2022-11-20T17:35:21;82.40;;;73.97;;
33644;SDS011;19986;48.190;16.366;2022-11-20T17:37:47;84.65;;;76.28;;
33644;SDS011;19986;48.190;16.366;2022-11-20T17:40:13;80.57;;;72.80;;
33644;SDS011;19986;48.190;16.366;2022-11-20T17:42:40;80.05;;;72.10;;
33644;SDS011;19986;48.190;16.366;2022-11-20T17:45:06;80.40;;;72.85;;
33644;SDS011;19986;48.190;16.366;2022-11-20T17:47:34;82.53;;;74.78;;
33644;SDS011;19986;48.190;16.366;2022-11-20T17:50:02;81.72;;;74.20;;
33644;SDS011;19986;48.190;16.366;2022-11-20T17:52:28;82.28;;;73.93;;
33644;SDS011;19986;48.190;16.366;2022-11-20T17:54:55;83.40;;;75.43;;
33644;SDS011;19986;48.190;16.366;2022-11-20T17:57:22;76.60;;;69.05;;
33644;SDS011;19986;48.190;16.366;2022-11-20T18:00:07;80.07;;;71.80;;
33644;SDS011;19986;48.190;16.366;2022-11-20T18:02:37;79.20;;;71.78;;
33644;SDS011;19986;48.190;16.366;2022-11-20T18:05:04;81.40;;;73.22;;
33644;SDS011;19986;48.190;16.366;2022-11-20T18:07:30;81.55;;;73.72;;
33644;SDS011;19986;48.190;16.366;2022-11-20T18:09:58;84.82;;;76.75;;
33644;SDS011;19986;48.190;16.366;2022-11-20T18:12:24;86.55;;;78.18;;
33644;SDS011;19986;48.190;16.366;2022-11-20T18:14:50;84.68;;;76.60;;
33644;SDS011;19986;48.190;16.366;2022-11-20T18:17:16;92.32;;;83.50;;
33644;SDS011;19986;48.190;16.366;2022-11-20T18:19:45;88.95;;;80.13;;
33644;SDS011;19986;48.190;16.366;2022-11-20T18:22:13;85.60;;;77.15;;
33644;SDS011;19986;48.190;16.366;2022-11-20T18:24:41;86.05;;;77.68;;
33644;SDS011;19986;48.190;16.366;2022-11-20T18:27:11;82.78;;;74.53;;
33644;SDS011;19986;48.190;16.366;2022-11-20T18:29:44;86.45;;;77.88;;
33644;SDS011;19986;48.190;16.366;2022-11-20T18:32:14;84.35;;;76.03;;
33644;SDS011;19986;48.190;16.366;2022-11-20T18:34:40;89.53;;;80.50;;
33644;SDS011;19986;48.190;16.366;2022-11-20T18:37:06;87.55;;;79.10;;
33644;SDS011;19986;48.190;16.366;2022-11-20T18:39:34;83.13;;;75.20;;
33644;SDS011;19986;48.190;16.366;2022-11-20T18:42:01;89.25;;;80.00;;
33644;SDS011;19986;48.190;16.366;2022-11-20T18:44:47;85.43;;;76.88;;
33644;SDS011;19986;48.190;16.366;2022-11-20T18:47:23;84.43;;;76.18;;
33644;SDS011;19986;48.190;16.366;2022-11-20T18:49:57;80.72;;;72.80;;
33644;SDS011;19986;48.190;16.366;2022-11-20T18:55:17;77.00;;;69.90;;
33644;SDS011;19986;48.190;16.366;2022-11-20T18:57:43;77.32;;;69.85;;
33644;SDS011;19986;48.190;16.366;2022-11-20T19:00:11;82.28;;;74.13;;
33644;SDS011;19986;48.190;16.366;2022-11-20T19:02:38;70.07;;;63.65;;
33644;SDS011;19986;48.190;16.366;2022-11-20T19:05:06;72.88;;;66.28;;
33644;SDS011;19986;48.190;16.366;2022-11-20T19:07:33;72.57;;;66.07;;
33644;SDS011;19986;48.190;16.366;2022-11-20T19:10:02;72.28;;;65.65;;
33644;SDS011;19986;48.190;16.366;2022-11-20T19:12:31;70.38;;;63.88;;
33644;SDS011;19986;48.190;16.366;2022-11-20T19:14:57;70.28;;;63.97;;
33644;SDS011;19986;48.190;16.366;2022-11-20T19:17:23;70.90;;;64.68;;
33644;SDS011;19986;48.190;16.366;2022-11-20T19:19:49;71.00;;;64.25;;
33644;SDS011;19986;48.190;16.366;2022-11-20T19:22:16;68.65;;;62.53;;
33644;SDS011;19986;48.190;16.366;2022-11-20T19:24:43;66.50;;;60.60;;
33644;SDS011;19986;48.190;16.366;2022-11-20T19:27:12;83.40;;;74.93;;
33644;SDS011;19986;48.190;16.366;2022-11-20T19:29:38;66.32;;;60.65;;
33644;SDS011;19986;48.190;16.366;2022-11-20T19:32:05;67.57;;;61.72;;
33644;SDS011;19986;48.190;16.366;2022-11-20T19:34:32;63.25;;;57.88;;
33644;SDS011;19986;48.190;16.366;2022-11-20T19:36:58;62.55;;;57.55;;
33644;SDS011;19986;48.190;16.366;2022-11-20T19:39:25;58.30;;;53.60;;
33644;SDS011;19986;48.190;16.366;2022-11-20T19:41:51;61.03;;;56.17;;
33644;SDS011;19986;48.190;16.366;2022-11-20T19:44:17;62.47;;;57.90;;
33644;SDS011;19986;48.190;16.366;2022-11-20T19:46:44;59.97;;;55.65;;
33644;SDS011;19986;48.190;16.366;2022-11-20T19:49:11;70.18;;;63.28;;
33644;SDS011;19986;48.190;16.366;2022-11-20T19:51:38;59.83;;;54.78;;
33644;SDS011;19986;48.190;16.366;2022-11-20T19:54:09;60.40;;;55.30;;
33644;SDS011;19986;48.190;16.366;2022-11-20T19:56:36;60.95;;;56.08;;
33644;SDS011;19986;48.190;16.366;2022-11-20T19:59:02;61.63;;;56.88;;
33644;SDS011;19986;48.190;16.366;2022-11-20T20:01:29;60.35;;;55.78;;
33644;SDS011;19986;48.190;16.366;2022-11-20T20:03:58;61.83;;;57.33;;
33644;SDS011;19986;48.190;16.366;2022-11-20T20:06:30;60.20;;;55.70;;
33644;SDS011;19986;48.190;16.366;2022-11-20T20:09:01;57.20;;;52.88;;
33644;SDS011;19986;48.190;16.366;2022-11-20T20:11:30;59.63;;;55.08;;
33644;SDS011;19986;48.190;16.366;2022-11-20T20:14:04;59.20;;;55.03;;
33644;SDS011;19986;48.190;16.366;2022-11-20T20:16:37;57.17;;;53.00;;
33644;SDS011;19986;48.190;16.366;2022-11-20T20:19:04;60.78;;;55.85;;
33644;SDS011;19986;48.190;16.366;2022-11-20T20:21:31;55.08;;;50.95;;
33644;SDS011;19986;48.190;16.366;2022-11-20T20:24:00;57.70;;;53.53;;
33644;SDS011;19986;48.190;16.366;2022-11-20T20:26:29;59.17;;;54.78;;
33644;SDS011;19986;48.190;16.366;2022-11-20T20:28:56;57.97;;;53.40;;
33644;SDS011;19986;48.190;16.366;2022-11-20T20:31:24;60.05;;;55.75;;
33644;SDS011;19986;48.190;16.366;2022-11-20T20:33:52;56.58;;;52.08;;
33644;SDS011;19986;48.190;16.366;2022-11-20T20:36:19;58.10;;;52.92;;
33644;SDS011;19986;48.190;16.366;2022-11-20T20:38:46;58.67;;;53.50;;
33644;SDS011;19986;48.190;16.366;2022-11-20T20:41:17;61.85;;;56.85;;
33644;SDS011;19986;48.190;16.366;2022-11-20T20:43:48;63.17;;;57.97;;
33644;SDS011;19986;48.190;16.366;2022-11-20T20:46:33;60.92;;;56.08;;
33644;SDS011;19986;48.190;16.366;2022-11-20T20:49:00;68.53;;;62.53;;
33644;SDS011;19986;48.190;16.366;2022-11-20T20:51:26;69.00;;;62.92;;
33644;SDS011;19986;48.190;16.366;2022-11-20T20:53:52;64.00;;;58.58;;
33644;SDS011;19986;48.190;16.366;2022-11-20T20:56:19;64.78;;;58.88;;
33644;SDS011;19986;48.190;16.366;2022-11-20T20:58:45;64.25;;;58.88;;
